Terminal Aerodrome Forecast
Issued by NWS

Home | Current Version | Previous Version | Text Only | Print | Product List | Glossary Off
Versions: 1 2 3 4 5 6 7 8 9 10 11 12 13 14 15 16 17 18

088
FTUS43 KBIS 241726
TAFMOT
TAF
KMOT 241726Z 2418/2518 17019G28KT P6SM FEW100 FEW200
     FM250000 18012G20KT P6SM VCTS SCT100CB BKN250
     FM250200 29004KT P6SM VCTS SCT090CB
     FM250400 32010KT P6SM FEW080 SCT200
     FM251700 28010KT P6SM SCT200=

USA.gov is the U.S. government's official web portal to all federal, state and local government web resources and services.